createdAt,value
2023-03-13T00:03:34.194Z,8.17
2023-03-13T00:08:36.974Z,8.26
2023-03-13T00:13:39.974Z,8.23
2023-03-13T00:18:47.831Z,8.26
2023-03-13T00:23:50.837Z,8.14
2023-03-13T00:28:54.082Z,8.27
2023-03-13T00:33:59.627Z,8.25
2023-03-13T00:39:02.446Z,8.22
2023-03-13T00:44:05.273Z,8.16
2023-03-13T00:49:09.747Z,8.35
2023-03-13T00:54:12.452Z,8.32
2023-03-13T00:59:15.238Z,8.38
2023-03-13T01:04:20.070Z,8.39
2023-03-13T01:09:22.815Z,8.37
2023-03-13T01:14:25.692Z,8.33
2023-03-13T01:19:31.069Z,8.38
2023-03-13T01:24:33.954Z,8.41
2023-03-13T01:29:36.662Z,8.47
2023-03-13T01:34:41.907Z,8.42
2023-03-13T01:39:44.620Z,8.63
2023-03-13T01:44:51.840Z,8.39
2023-03-13T01:49:56.003Z,8.43
2023-03-13T01:55:27.881Z,8.34
2023-03-13T02:00:34.139Z,8.39
2023-03-13T02:05:39.156Z,8.34
2023-03-13T02:10:50.276Z,8.37
2023-03-13T02:15:53.267Z,8.38
2023-03-13T02:21:02.472Z,8.37
2023-03-13T02:26:07.423Z,8.43
2023-03-13T02:31:11.874Z,8.41
2023-03-13T02:36:16.248Z,8.43
2023-03-13T02:41:21.620Z,8.43
2023-03-13T02:46:24.402Z,8.48
2023-03-13T02:51:33.008Z,8.61
2023-03-13T02:56:39.747Z,8.61
2023-03-13T03:01:44.346Z,8.59
2023-03-13T03:06:47.124Z,8.63
2023-03-13T03:11:51.466Z,8.68
2023-03-13T03:16:54.690Z,8.66
2023-03-13T03:21:57.450Z,8.72
2023-03-13T03:27:01.507Z,8.69
2023-03-13T03:32:11.613Z,8.83
2023-03-13T03:37:14.350Z,8.83
2023-03-13T03:42:18.487Z,8.77
2023-03-13T03:47:21.271Z,8.77
2023-03-13T03:52:24.179Z,8.78
2023-03-13T03:57:28.308Z,8.89
2023-03-13T04:02:31.181Z,8.89
2023-03-13T04:07:34.164Z,8.82
2023-03-13T04:12:38.677Z,8.92
2023-03-13T04:17:41.382Z,8.94
2023-03-13T04:22:45.465Z,8.98
2023-03-13T04:27:51.222Z,8.96
2023-03-13T04:32:57.173Z,9.04
2023-03-13T04:38:21.032Z,9.22
2023-03-13T04:43:47.218Z,9.32
2023-03-13T04:49:09.037Z,9.32
2023-03-13T04:54:14.908Z,9.40
2023-03-13T04:59:48.082Z,9.45
2023-03-13T05:05:17.508Z,9.58
2023-03-13T05:10:49.253Z,9.53
2023-03-13T05:16:12.015Z,9.51
2023-03-13T05:21:39.975Z,9.69
2023-03-13T05:27:09.770Z,9.77
2023-03-13T05:32:34.156Z,9.86
2023-03-13T05:37:55.572Z,9.91
2023-03-13T05:43:08.047Z,9.92
2023-03-13T05:48:47.465Z,10.01
2023-03-13T05:54:15.696Z,9.93
2023-03-13T05:59:53.647Z,9.99
2023-03-13T06:05:17.596Z,9.97
2023-03-13T06:10:21.511Z,10.24
2023-03-13T06:15:24.736Z,10.18
2023-03-13T06:20:34.431Z,10.23
2023-03-13T06:25:37.106Z,10.16
2023-03-13T06:30:39.821Z,10.38
2023-03-13T06:35:55.733Z,10.38
2023-03-13T06:40:58.928Z,10.51
2023-03-13T06:46:05.005Z,10.46
2023-03-13T06:51:12.649Z,10.52
2023-03-13T06:56:15.336Z,10.50
2023-03-13T07:01:18.887Z,10.64
2023-03-13T07:06:23.000Z,10.61
2023-03-13T07:11:26.130Z,10.60
2023-03-13T07:16:29.030Z,10.64
2023-03-13T07:21:33.121Z,10.62
2023-03-13T07:26:35.997Z,10.70
2023-03-13T07:31:39.280Z,10.85
2023-03-13T07:36:43.748Z,11.13
2023-03-13T07:41:46.714Z,11.00
2023-03-13T07:46:52.518Z,11.29
2023-03-13T07:51:57.597Z,11.16
2023-03-13T07:57:00.292Z,11.34
2023-03-13T08:02:03.356Z,11.45
2023-03-13T08:07:10.734Z,11.64
2023-03-13T08:12:13.433Z,11.92
2023-03-13T08:17:16.137Z,11.82
2023-03-13T08:22:20.185Z,11.89
2023-03-13T08:27:22.875Z,12.20
2023-03-13T08:32:25.598Z,12.10
2023-03-13T08:37:29.663Z,12.16
2023-03-13T08:42:32.348Z,12.28
2023-03-13T08:47:35.116Z,12.18
2023-03-13T08:52:39.150Z,12.23
2023-03-13T08:57:41.830Z,12.32
2023-03-13T09:02:44.558Z,12.20
2023-03-13T09:07:48.674Z,12.44
2023-03-13T09:12:51.369Z,12.48
2023-03-13T09:17:54.102Z,12.46
2023-03-13T09:22:58.231Z,12.33
2023-03-13T09:28:00.960Z,12.53
2023-03-13T09:33:03.882Z,12.56
2023-03-13T09:38:08.518Z,12.44
2023-03-13T09:43:21.875Z,12.50
2023-03-13T09:48:31.286Z,12.75
2023-03-13T09:53:41.041Z,12.88
2023-03-13T09:58:48.409Z,13.24
2023-03-13T10:03:58.806Z,13.47
2023-03-13T10:09:02.950Z,13.49
2023-03-13T10:14:08.442Z,13.55
2023-03-13T10:19:13.999Z,13.57
2023-03-13T10:24:23.715Z,13.82
2023-03-13T10:29:28.254Z,13.54
2023-03-13T10:34:46.880Z,13.37
2023-03-13T10:39:51.086Z,13.50
2023-03-13T10:44:58.118Z,13.57
2023-03-13T10:50:00.951Z,13.78
2023-03-13T10:55:07.824Z,13.73
2023-03-13T11:00:29.525Z,14.10
2023-03-13T11:05:35.139Z,14.06
2023-03-13T11:10:39.300Z,14.05
2023-03-13T11:15:49.912Z,14.33
2023-03-13T11:20:52.851Z,14.61
2023-03-13T11:26:03.209Z,14.82
2023-03-13T11:31:11.291Z,14.72
2023-03-13T11:36:22.461Z,14.84
2023-03-13T11:41:33.316Z,14.74
2023-03-13T11:46:46.846Z,14.87
2023-03-13T11:52:06.953Z,15.22
2023-03-13T11:57:14.538Z,15.23
2023-03-13T12:02:22.615Z,15.63
2023-03-13T12:07:29.512Z,15.38
2023-03-13T12:12:40.890Z,15.86
2023-03-13T12:17:48.018Z,15.60
2023-03-13T12:22:55.064Z,15.55
2023-03-13T12:28:04.365Z,15.65
2023-03-13T12:33:16.861Z,15.98
2023-03-13T12:38:23.450Z,16.04
2023-03-13T12:43:30.949Z,15.77
2023-03-13T12:48:46.198Z,16.21
2023-03-13T12:54:27.306Z,16.01
2023-03-13T12:59:33.916Z,16.43
2023-03-13T13:04:43.774Z,16.80
2023-03-13T13:10:02.447Z,16.60
2023-03-13T13:15:20.607Z,16.65
2023-03-13T13:20:41.309Z,16.60
2023-03-13T13:25:44.060Z,16.27
2023-03-13T13:30:48.315Z,16.23
2023-03-13T13:36:34.927Z,16.25
2023-03-13T13:41:38.779Z,16.40
2023-03-13T13:46:47.026Z,16.04
2023-03-13T13:52:30.984Z,15.76
2023-03-13T13:57:37.142Z,15.93
2023-03-13T14:02:49.682Z,16.55
2023-03-13T14:07:59.113Z,16.58
2023-03-13T14:13:02.953Z,16.79
2023-03-13T14:18:21.422Z,16.31
2023-03-13T14:23:34.475Z,16.11
2023-03-13T14:28:40.079Z,16.15
2023-03-13T14:33:44.114Z,16.10
2023-03-13T14:38:55.607Z,16.08
2023-03-13T14:44:05.386Z,16.08
2023-03-13T14:49:16.939Z,15.95
2023-03-13T14:54:28.642Z,15.91
2023-03-13T14:59:31.576Z,15.96
2023-03-13T15:04:59.481Z,15.94
2023-03-13T15:10:02.200Z,15.98
2023-03-13T15:15:05.310Z,15.83
2023-03-13T15:20:11.912Z,15.78
2023-03-13T15:25:17.276Z,15.67
2023-03-13T15:30:23.285Z,15.68
2023-03-13T15:35:29.302Z,15.54
2023-03-13T15:40:32.047Z,15.55
2023-03-13T15:45:35.003Z,15.41
2023-03-13T15:50:39.077Z,15.17
2023-03-13T15:55:42.001Z,15.05
2023-03-13T16:00:45.594Z,14.93
2023-03-13T16:05:49.953Z,14.89
2023-03-13T16:10:52.757Z,14.80
2023-03-13T16:15:55.506Z,14.79
2023-03-13T16:20:59.571Z,14.64
2023-03-13T16:26:02.269Z,14.72
2023-03-13T16:31:05.676Z,14.74
2023-03-13T16:36:15.494Z,14.65
2023-03-13T16:41:19.717Z,14.70
2023-03-13T16:46:23.896Z,14.72
2023-03-13T16:51:29.067Z,14.59
2023-03-13T16:56:34.523Z,14.54
2023-03-13T17:01:37.334Z,14.38
2023-03-13T17:06:44.495Z,14.19
2023-03-13T17:11:48.350Z,13.96
2023-03-13T17:16:51.081Z,13.80
2023-03-13T17:21:55.378Z,13.72
2023-03-13T17:26:58.092Z,13.57
2023-03-13T17:32:04.081Z,13.46
2023-03-13T17:37:15.169Z,13.43
2023-03-13T17:42:18.037Z,13.29
2023-03-13T17:47:24.578Z,13.27
2023-03-13T17:52:28.896Z,13.15
2023-03-13T17:57:31.662Z,13.15
2023-03-13T18:02:34.404Z,13.09
2023-03-13T18:07:43.690Z,12.99
2023-03-13T18:12:46.577Z,12.99
2023-03-13T18:17:49.860Z,12.88
2023-03-13T18:22:54.057Z,12.79
2023-03-13T18:27:56.898Z,12.67
2023-03-13T18:32:59.725Z,12.62
2023-03-13T18:38:03.838Z,12.53
2023-03-13T18:43:06.573Z,12.37
2023-03-13T18:48:11.305Z,12.26
2023-03-13T18:53:15.423Z,12.16
2023-03-13T18:58:18.291Z,12.11
2023-03-13T19:03:21.683Z,12.03
2023-03-13T19:08:26.014Z,11.97
2023-03-13T19:13:34.684Z,11.95
2023-03-13T19:18:37.442Z,11.92
2023-03-13T19:23:41.550Z,11.95
2023-03-13T19:28:44.502Z,11.91
2023-03-13T19:33:47.479Z,11.88
2023-03-13T19:38:51.926Z,11.91
2023-03-13T19:43:54.639Z,11.85
2023-03-13T19:48:59.187Z,11.81
2023-03-13T19:54:03.234Z,11.79
2023-03-13T19:59:07.173Z,11.77
2023-03-13T20:04:09.961Z,11.72
2023-03-13T20:09:16.470Z,11.67
2023-03-13T20:14:19.288Z,11.60
2023-03-13T20:19:23.933Z,11.52
2023-03-13T20:24:28.020Z,11.48
2023-03-13T20:29:30.759Z,11.38
2023-03-13T20:34:33.526Z,11.35
2023-03-13T20:39:38.295Z,11.41
2023-03-13T20:44:41.223Z,11.26
2023-03-13T20:49:43.999Z,11.15
2023-03-13T20:54:48.094Z,11.09
2023-03-13T20:59:50.853Z,11.11
2023-03-13T21:04:53.607Z,10.88
2023-03-13T21:09:57.687Z,10.77
2023-03-13T21:15:00.418Z,10.67
2023-03-13T21:20:07.579Z,10.54
2023-03-13T21:25:12.619Z,10.50
2023-03-13T21:30:17.999Z,10.48
2023-03-13T21:35:20.771Z,10.48
2023-03-13T21:40:24.863Z,10.45
2023-03-13T21:45:27.590Z,10.50
2023-03-13T21:50:30.928Z,10.52
2023-03-13T21:55:38.177Z,10.44
2023-03-13T22:00:40.935Z,10.34
2023-03-13T22:05:44.088Z,10.32
2023-03-13T22:10:50.182Z,10.30
2023-03-13T22:15:52.943Z,10.25
2023-03-13T22:20:57.771Z,10.26
2023-03-13T22:26:01.822Z,10.21
2023-03-13T22:31:05.843Z,10.20
2023-03-13T22:36:10.263Z,10.11
2023-03-13T22:41:14.724Z,10.18
2023-03-13T22:46:17.423Z,10.22
2023-03-13T22:51:20.187Z,10.11
2023-03-13T22:56:26.515Z,10.18
2023-03-13T23:01:30.684Z,10.29
2023-03-13T23:06:33.474Z,10.48
2023-03-13T23:11:37.619Z,10.40
2023-03-13T23:16:40.341Z,10.60
2023-03-13T23:21:43.062Z,10.41
2023-03-13T23:26:47.141Z,10.36
2023-03-13T23:31:49.890Z,10.44
2023-03-13T23:36:52.632Z,10.24
2023-03-13T23:41:56.711Z,10.32
2023-03-13T23:46:59.371Z,10.16
2023-03-13T23:52:02.014Z,10.15
2023-03-13T23:57:06.227Z,10.20
